Time;durP1;ratioP1;P1;durP2;ratioP2;P2;SDS_P1;SDS_P2;PMS_P1;PMS_P2;Temp;Humidity;BMP_temperature;BMP_pressure;BME280_temperature;BME280_humidity;BME280_pressure;Samples;Min_cycle;Max_cycle;Signal;HPM_P1;HPM_P2
2023/05/21 00:01:39;;;;;;;0.00;0.00;;;;;;;;;;5093707;28;20225;-76
2023/05/21 00:04:07;;;;;;;0.00;0.00;;;;;;;;;;5098255;28;20673;-76
2023/05/21 00:06:36;;;;;;;0.00;0.00;;;;;;;;;;5097641;28;20210;-76
2023/05/21 00:09:05;;;;;;;0.00;0.00;;;;;;;;;;5096910;28;20577;-76
2023/05/21 00:11:35;;;;;;;0.00;0.00;;;;;;;;;;5092686;28;20212;-76
2023/05/21 00:14:03;;;;;;;0.00;0.00;;;;;;;;;;5094332;28;20309;-76
2023/05/21 00:16:32;;;;;;;0.00;0.00;;;;;;;;;;5093391;28;20673;-76
2023/05/21 00:19:01;;;;;;;0.00;0.00;;;;;;;;;;5094508;28;20205;-77
2023/05/21 00:21:30;;;;;;;0.00;0.00;;;;;;;;;;5103733;28;20875;-77
2023/05/21 00:23:58;;;;;;;0.00;0.00;;;;;;;;;;5093661;28;20233;-76
2023/05/21 00:26:27;;;;;;;0.00;0.00;;;;;;;;;;5093198;28;20202;-76
2023/05/21 00:28:57;;;;;;;0.00;0.00;;;;;;;;;;5096337;28;20204;-76
2023/05/21 00:31:25;;;;;;;0.00;0.00;;;;;;;;;;5107274;28;20202;-76
2023/05/21 00:33:54;;;;;;;0.00;0.00;;;;;;;;;;5094869;28;20221;-76
2023/05/21 00:36:23;;;;;;;0.00;0.00;;;;;;;;;;5093775;28;20214;-76
2023/05/21 00:38:51;;;;;;;0.00;0.00;;;;;;;;;;5093953;28;20205;-76
2023/05/21 00:41:21;;;;;;;0.00;0.00;;;;;;;;;;5093950;28;20212;-77
2023/05/21 00:43:51;;;;;;;0.00;0.00;;;;;;;;;;5101662;28;20626;-76
2023/05/21 00:46:21;;;;;;;0.00;0.00;;;;;;;;;;5115171;28;20232;-76
2023/05/21 00:48:51;;;;;;;0.00;0.00;;;;;;;;;;5112241;28;20190;-77
2023/05/21 00:51:20;;;;;;;0.00;0.00;;;;;;;;;;5094417;28;20206;-76
2023/05/21 00:53:51;;;;;;;0.00;0.00;;;;;;;;;;5094248;28;20214;-76
2023/05/21 00:56:20;;;;;;;0.00;0.00;;;;;;;;;;5094545;28;20206;-76
2023/05/21 00:58:50;;;;;;;0.00;0.00;;;;;;;;;;5094242;28;20201;-76
2023/05/21 01:01:19;;;;;;;0.00;0.00;;;;;;;;;;5094380;28;20255;-76
2023/05/21 01:03:49;;;;;;;0.00;0.00;;;;;;;;;;5093188;28;20230;-76
2023/05/21 01:06:19;;;;;;;0.00;0.00;;;;;;;;;;5095035;28;20214;-77
2023/05/21 01:08:49;;;;;;;0.00;0.00;;;;;;;;;;5097031;28;20218;-76
2023/05/21 01:11:18;;;;;;;0.00;0.00;;;;;;;;;;5113817;28;20643;-76
2023/05/21 01:13:47;;;;;;;0.00;0.00;;;;;;;;;;5113893;28;20220;-76
2023/05/21 01:16:16;;;;;;;0.00;0.00;;;;;;;;;;5115107;28;20200;-76
2023/05/21 01:18:45;;;;;;;0.00;0.00;;;;;;;;;;5113767;28;20241;-76
2023/05/21 01:21:16;;;;;;;0.00;0.00;;;;;;;;;;5114688;28;20235;-76
2023/05/21 01:23:46;;;;;;;0.00;0.00;;;;;;;;;;5104354;28;20240;-76
2023/05/21 01:26:14;;;;;;;0.00;0.00;;;;;;;;;;5115094;28;20251;-76
2023/05/21 01:28:43;;;;;;;0.00;0.00;;;;;;;;;;5094915;28;20202;-76
2023/05/21 01:31:17;;;;;;;0.00;0.00;;;;;;;;;;5102219;28;20202;-77
2023/05/21 01:33:48;;;;;;;0.00;0.00;;;;;;;;;;5114911;28;20225;-76
2023/05/21 01:36:20;;;;;;;0.00;0.00;;;;;;;;;;5112485;28;20197;-76
2023/05/21 01:38:54;;;;;;;0.00;0.00;;;;;;;;;;5114468;28;20192;-76
2023/05/21 01:41:23;;;;;;;0.00;0.00;;;;;;;;;;5113749;28;20201;-76
2023/05/21 01:43:52;;;;;;;0.00;0.00;;;;;;;;;;5101537;28;20268;-76
2023/05/21 01:46:24;;;;;;;0.00;0.00;;;;;;;;;;5096528;28;20201;-76
2023/05/21 01:48:53;;;;;;;0.00;0.00;;;;;;;;;;5096928;28;20232;-76
2023/05/21 01:51:22;;;;;;;0.00;0.00;;;;;;;;;;5096564;28;20202;-76
2023/05/21 01:53:51;;;;;;;0.00;0.00;;;;;;;;;;5096698;28;20218;-76
2023/05/21 01:56:21;;;;;;;0.00;0.00;;;;;;;;;;5096981;28;20213;-76
2023/05/21 01:58:50;;;;;;;0.00;0.00;;;;;;;;;;5097658;28;20292;-76
2023/05/21 02:01:19;;;;;;;0.00;0.00;;;;;;;;;;5096842;28;20210;-76
2023/05/21 02:03:47;;;;;;;0.00;0.00;;;;;;;;;;5096375;28;20229;-76
2023/05/21 02:06:16;;;;;;;0.00;0.00;;;;;;;;;;5096281;28;20247;-76
2023/05/21 02:08:45;;;;;;;0.00;0.00;;;;;;;;;;5096380;28;20204;-76
2023/05/21 02:11:15;;;;;;;0.00;0.00;;;;;;;;;;5097060;28;20202;-76
2023/05/21 02:13:44;;;;;;;0.00;0.00;;;;;;;;;;5096911;28;20240;-76
2023/05/21 02:16:14;;;;;;;0.00;0.00;;;;;;;;;;5097117;28;20575;-76
2023/05/21 02:18:43;;;;;;;0.00;0.00;;;;;;;;;;5097571;28;20288;-76
2023/05/21 02:21:11;;;;;;;0.00;0.00;;;;;;;;;;5096512;28;20731;-76
2023/05/21 02:23:40;;;;;;;0.00;0.00;;;;;;;;;;5096342;28;20222;-76
2023/05/21 02:26:09;;;;;;;0.00;0.00;;;;;;;;;;5096176;28;20205;-76
2023/05/21 02:28:39;;;;;;;0.00;0.00;;;;;;;;;;5095809;28;20576;-76
2023/05/21 02:31:07;;;;;;;0.00;0.00;;;;;;;;;;5097496;28;20212;-76
2023/05/21 02:33:36;;;;;;;0.00;0.00;;;;;;;;;;5102621;28;20217;-76
2023/05/21 02:36:04;;;;;;;0.00;0.00;;;;;;;;;;5096408;28;20201;-76
2023/05/21 02:38:33;;;;;;;0.00;0.00;;;;;;;;;;5115100;28;20204;-76
2023/05/21 02:41:01;;;;;;;0.00;0.00;;;;;;;;;;5105253;28;20206;-76
2023/05/21 02:43:30;;;;;;;0.00;0.00;;;;;;;;;;5115812;28;20229;-76
2023/05/21 02:45:59;;;;;;;0.00;0.00;;;;;;;;;;5116124;28;20217;-76
2023/05/21 02:48:28;;;;;;;0.00;0.00;;;;;;;;;;5113116;28;20205;-76
2023/05/21 02:50:56;;;;;;;0.00;0.00;;;;;;;;;;5095836;28;20213;-76
2023/05/21 02:53:25;;;;;;;0.00;0.00;;;;;;;;;;5095629;28;20202;-76
2023/05/21 02:55:54;;;;;;;0.00;0.00;;;;;;;;;;5096044;28;20209;-76
2023/05/21 02:58:24;;;;;;;0.00;0.00;;;;;;;;;;5095574;28;20198;-76
2023/05/21 03:00:53;;;;;;;0.00;0.00;;;;;;;;;;5096157;28;20185;-76
2023/05/21 03:03:23;;;;;;;0.00;0.00;;;;;;;;;;5095832;28;20255;-76
2023/05/21 03:05:51;;;;;;;0.00;0.00;;;;;;;;;;5095508;28;20226;-76
2023/05/21 03:08:20;;;;;;;0.00;0.00;;;;;;;;;;5095386;28;20210;-76
2023/05/21 03:10:49;;;;;;;0.00;0.00;;;;;;;;;;5095320;28;20197;-76
2023/05/21 03:13:18;;;;;;;0.00;0.00;;;;;;;;;;5094478;28;20210;-76
2023/05/21 03:15:47;;;;;;;0.00;0.00;;;;;;;;;;5094538;28;20201;-76
2023/05/21 03:18:15;;;;;;;0.00;0.00;;;;;;;;;;5093997;28;20263;-76
2023/05/21 03:20:45;;;;;;;0.00;0.00;;;;;;;;;;5095538;28;20205;-76
2023/05/21 03:23:14;;;;;;;0.00;0.00;;;;;;;;;;5095381;28;20566;-76
2023/05/21 03:25:44;;;;;;;0.00;0.00;;;;;;;;;;5095476;28;20228;-76
2023/05/21 03:28:13;;;;;;;0.00;0.00;;;;;;;;;;5095431;28;20201;-76
2023/05/21 03:30:45;;;;;;;0.00;0.00;;;;;;;;;;5095852;28;20563;-76
2023/05/21 03:33:14;;;;;;;0.00;0.00;;;;;;;;;;5095572;28;20186;-76
2023/05/21 03:35:42;;;;;;;0.00;0.00;;;;;;;;;;5095487;28;20563;-76
2023/05/21 03:38:12;;;;;;;0.00;0.00;;;;;;;;;;5094916;28;20209;-76
2023/05/21 03:40:40;;;;;;;0.00;0.00;;;;;;;;;;5095480;28;20201;-76
2023/05/21 03:43:09;;;;;;;0.00;0.00;;;;;;;;;;5103818;28;20198;-76
2023/05/21 03:45:37;;;;;;;0.00;0.00;;;;;;;;;;5116296;28;20569;-76
2023/05/21 03:48:09;;;;;;;0.00;0.00;;;;;;;;;;5112396;28;20608;-76
2023/05/21 03:50:38;;;;;;;0.07;0.07;;;;;;;;;;5094837;28;20236;-76
2023/05/21 03:53:06;;;;;;;0.00;0.00;;;;;;;;;;5097574;28;20561;-76
2023/05/21 03:55:36;;;;;;;0.00;0.00;;;;;;;;;;5113592;28;20201;-76
2023/05/21 03:58:05;;;;;;;0.00;0.00;;;;;;;;;;5095659;28;21825;-76
2023/05/21 04:00:36;;;;;;;0.00;0.00;;;;;;;;;;5095010;28;20198;-76
2023/05/21 04:03:05;;;;;;;0.00;0.00;;;;;;;;;;5095993;28;20205;-76
2023/05/21 04:05:34;;;;;;;0.00;0.00;;;;;;;;;;5113764;28;20228;-76
2023/05/21 04:08:03;;;;;;;0.00;0.00;;;;;;;;;;5112523;28;20201;-77
2023/05/21 04:10:31;;;;;;;0.00;0.00;;;;;;;;;;5110412;28;20574;-76
2023/05/21 04:13:01;;;;;;;0.00;0.00;;;;;;;;;;5115737;28;20205;-76
2023/05/21 04:15:30;;;;;;;0.00;0.00;;;;;;;;;;5098215;28;20228;-76
2023/05/21 04:17:59;;;;;;;0.00;0.00;;;;;;;;;;5112633;28;20209;-75
2023/05/21 04:20:27;;;;;;;0.00;0.00;;;;;;;;;;5114235;28;20201;-76
2023/05/21 04:22:56;;;;;;;0.00;0.00;;;;;;;;;;5113219;27;20211;-76
2023/05/21 04:25:24;;;;;;;0.00;0.00;;;;;;;;;;5114946;28;20221;-76
2023/05/21 04:27:53;;;;;;;0.00;0.00;;;;;;;;;;5113538;27;20212;-76
2023/05/21 04:30:23;;;;;;;0.00;0.00;;;;;;;;;;5112365;28;20227;-76
2023/05/21 04:32:53;;;;;;;0.00;0.00;;;;;;;;;;5113859;28;20207;-76
2023/05/21 04:35:22;;;;;;;0.00;0.00;;;;;;;;;;5104071;28;20226;-76
2023/05/21 04:37:53;;;;;;;0.00;0.00;;;;;;;;;;5107543;28;20213;-77
2023/05/21 04:40:23;;;;;;;0.00;0.00;;;;;;;;;;5096193;28;20213;-77
2023/05/21 04:42:52;;;;;;;0.00;0.00;;;;;;;;;;5094043;28;20198;-76
2023/05/21 04:45:23;;;;;;;0.00;0.00;;;;;;;;;;5097939;28;20226;-76
2023/05/21 04:47:53;;;;;;;0.00;0.00;;;;;;;;;;5105066;28;20197;-76
2023/05/21 04:50:22;;;;;;;0.07;0.07;;;;;;;;;;5101972;28;20661;-76
2023/05/21 04:52:50;;;;;;;0.00;0.00;;;;;;;;;;5108914;28;20197;-76
2023/05/21 04:55:18;;;;;;;0.00;0.00;;;;;;;;;;5094709;28;20224;-76
2023/05/21 04:57:47;;;;;;;0.00;0.00;;;;;;;;;;5094805;28;20292;-76
2023/05/21 05:00:16;;;;;;;0.00;0.00;;;;;;;;;;5094299;28;20663;-76
2023/05/21 05:02:45;;;;;;;0.00;0.00;;;;;;;;;;5094391;28;20231;-76
2023/05/21 05:05:15;;;;;;;0.00;0.00;;;;;;;;;;5102529;28;20220;-77
2023/05/21 05:07:43;;;;;;;0.00;0.00;;;;;;;;;;5094965;28;20205;-76
2023/05/21 05:10:12;;;;;;;0.00;0.00;;;;;;;;;;5113549;28;20224;-77
2023/05/21 05:12:40;;;;;;;0.00;0.00;;;;;;;;;;5100121;28;20201;-76
2023/05/21 05:15:09;;;;;;;0.00;0.00;;;;;;;;;;5105913;28;20217;-76
2023/05/21 05:17:38;;;;;;;0.00;0.00;;;;;;;;;;5113961;28;20216;-76
2023/05/21 05:20:08;;;;;;;0.00;0.00;;;;;;;;;;5116267;28;20197;-76
2023/05/21 05:22:38;;;;;;;0.00;0.00;;;;;;;;;;5117816;28;20197;-76
2023/05/21 05:25:07;;;;;;;0.00;0.00;;;;;;;;;;5104279;28;20702;-76
2023/05/21 05:27:35;;;;;;;0.00;0.00;;;;;;;;;;5097849;28;20205;-76
2023/05/21 05:30:06;;;;;;;0.00;0.00;;;;;;;;;;5098442;28;20194;-77
2023/05/21 05:32:34;;;;;;;0.00;0.00;;;;;;;;;;5098493;28;20208;-77
2023/05/21 05:35:03;;;;;;;0.00;0.00;;;;;;;;;;5115229;28;20224;-76
2023/05/21 05:37:32;;;;;;;0.00;0.00;;;;;;;;;;5115329;28;20208;-76
2023/05/21 05:40:03;;;;;;;0.00;0.00;;;;;;;;;;5117955;28;20212;-76
2023/05/21 05:42:32;;;;;;;0.00;0.00;;;;;;;;;;5100153;28;20214;-76
2023/05/21 05:45:00;;;;;;;0.00;0.00;;;;;;;;;;5097815;28;20233;-76
2023/05/21 05:47:29;;;;;;;0.00;0.00;;;;;;;;;;5096974;28;20226;-76
2023/05/21 05:49:57;;;;;;;0.00;0.00;;;;;;;;;;5097534;28;20262;-76
2023/05/21 05:52:28;;;;;;;0.00;0.00;;;;;;;;;;5097912;28;20202;-77
2023/05/21 05:54:56;;;;;;;0.00;0.00;;;;;;;;;;5113848;28;20227;-76
2023/05/21 05:57:26;;;;;;;0.00;0.00;;;;;;;;;;5117637;28;20205;-77
2023/05/21 05:59:55;;;;;;;0.00;0.00;;;;;;;;;;5098549;28;20210;-77
2023/05/21 06:02:23;;;;;;;0.00;0.00;;;;;;;;;;5097755;28;20202;-76
2023/05/21 06:04:52;;;;;;;0.00;0.00;;;;;;;;;;5098564;28;20309;-77
2023/05/21 06:07:20;;;;;;;0.00;0.00;;;;;;;;;;5098929;28;20229;-76
2023/05/21 06:09:49;;;;;;;0.00;0.00;;;;;;;;;;5098662;28;20205;-76
2023/05/21 06:12:17;;;;;;;0.00;0.00;;;;;;;;;;5097074;28;20558;-76
2023/05/21 06:14:47;;;;;;;0.00;0.00;;;;;;;;;;5097182;28;20225;-76
2023/05/21 06:17:16;;;;;;;0.00;0.00;;;;;;;;;;5097994;28;20236;-76
2023/05/21 06:19:45;;;;;;;0.00;0.00;;;;;;;;;;5097029;28;20677;-77
2023/05/21 06:22:13;;;;;;;0.00;0.00;;;;;;;;;;5097809;28;20210;-76
2023/05/21 06:24:41;;;;;;;0.00;0.00;;;;;;;;;;5096651;28;20222;-76
2023/05/21 06:27:10;;;;;;;0.00;0.00;;;;;;;;;;5097855;28;20217;-76
2023/05/21 06:29:39;;;;;;;0.00;0.00;;;;;;;;;;5096832;28;20202;-77
2023/05/21 06:32:09;;;;;;;0.00;0.00;;;;;;;;;;5097015;28;20711;-76
2023/05/21 06:34:38;;;;;;;0.00;0.00;;;;;;;;;;5097313;28;20218;-77
2023/05/21 06:37:06;;;;;;;0.00;0.00;;;;;;;;;;5096548;28;20225;-76
2023/05/21 06:39:35;;;;;;;0.00;0.00;;;;;;;;;;5109867;28;20201;-76
2023/05/21 06:42:03;;;;;;;0.00;0.00;;;;;;;;;;5100481;28;20202;-77
2023/05/21 06:44:32;;;;;;;0.00;0.00;;;;;;;;;;5103849;28;20218;-76
2023/05/21 06:47:00;;;;;;;0.00;0.00;;;;;;;;;;5111056;28;20748;-76
2023/05/21 06:49:30;;;;;;;0.00;0.00;;;;;;;;;;5109891;28;20202;-77
2023/05/21 06:51:59;;;;;;;0.00;0.00;;;;;;;;;;5101260;27;20212;-77
2023/05/21 06:54:27;;;;;;;0.00;0.00;;;;;;;;;;5108933;28;20304;-77
2023/05/21 06:56:56;;;;;;;0.00;0.00;;;;;;;;;;5105151;28;20208;-77
2023/05/21 06:59:25;;;;;;;0.00;0.00;;;;;;;;;;5107918;28;20205;-76
2023/05/21 07:01:53;;;;;;;0.00;0.00;;;;;;;;;;5099361;28;20201;-77
2023/05/21 07:04:22;;;;;;;0.00;0.00;;;;;;;;;;5095482;28;20232;-77
2023/05/21 07:06:53;;;;;;;0.00;0.00;;;;;;;;;;5110109;28;20223;-77
2023/05/21 07:09:21;;;;;;;0.00;0.00;;;;;;;;;;5112076;28;20201;-77
2023/05/21 07:11:51;;;;;;;0.00;0.00;;;;;;;;;;5114274;28;20287;-75
2023/05/21 07:14:20;;;;;;;0.00;0.00;;;;;;;;;;5097983;28;20225;-76
2023/05/21 07:16:49;;;;;;;0.00;0.00;;;;;;;;;;5110272;28;20197;-77
2023/05/21 07:19:18;;;;;;;0.00;0.00;;;;;;;;;;5105624;28;20291;-77
2023/05/21 07:21:48;;;;;;;0.00;0.00;;;;;;;;;;5103542;28;20197;-77
2023/05/21 07:24:18;;;;;;;0.00;0.00;;;;;;;;;;5100564;28;20225;-76
2023/05/21 07:26:46;;;;;;;0.00;0.00;;;;;;;;;;5099959;28;20225;-76
2023/05/21 07:29:15;;;;;;;0.00;0.00;;;;;;;;;;5108330;28;20292;-77
2023/05/21 07:31:44;;;;;;;0.00;0.00;;;;;;;;;;5111239;28;20197;-76
2023/05/21 07:34:13;;;;;;;0.00;0.00;;;;;;;;;;5112886;28;20228;-77
2023/05/21 07:36:42;;;;;;;0.00;0.00;;;;;;;;;;5096233;28;20586;-75
2023/05/21 07:39:11;;;;;;;0.00;0.00;;;;;;;;;;5114533;28;20200;-76
2023/05/21 07:41:41;;;;;;;0.00;0.00;;;;;;;;;;5104063;28;20225;-76
2023/05/21 07:44:11;;;;;;;0.00;0.00;;;;;;;;;;5108636;27;20723;-76
2023/05/21 07:46:40;;;;;;;0.00;0.00;;;;;;;;;;5113756;28;20290;-77
2023/05/21 07:49:15;;;;;;;0.00;0.00;;;;;;;;;;5114549;28;20197;-75
2023/05/21 07:51:44;;;;;;;0.00;0.00;;;;;;;;;;5114075;28;20204;-76
2023/05/21 07:54:13;;;;;;;0.00;0.00;;;;;;;;;;5114592;28;20220;-76
2023/05/21 07:56:43;;;;;;;0.00;0.00;;;;;;;;;;5113450;28;20199;-77
2023/05/21 07:59:12;;;;;;;0.00;0.00;;;;;;;;;;5113201;28;20208;-75
2023/05/21 08:01:42;;;;;;;0.00;0.00;;;;;;;;;;5109455;28;20208;-75
2023/05/21 08:04:11;;;;;;;0.00;0.00;;;;;;;;;;5107032;28;20218;-75
2023/05/21 08:06:40;;;;;;;0.00;0.00;;;;;;;;;;5103165;28;20717;-76
2023/05/21 08:09:08;;;;;;;0.00;0.00;;;;;;;;;;5099814;28;20618;-75
2023/05/21 08:11:37;;;;;;;0.00;0.00;;;;;;;;;;5110301;28;20202;-75
2023/05/21 08:14:09;;;;;;;0.00;0.00;;;;;;;;;;5099996;28;20700;-76
2023/05/21 08:16:37;;;;;;;0.00;0.00;;;;;;;;;;5099265;28;20296;-76
2023/05/21 08:19:07;;;;;;;0.00;0.00;;;;;;;;;;5112249;28;20208;-75
2023/05/21 08:21:35;;;;;;;0.00;0.00;;;;;;;;;;5105917;28;20224;-75
2023/05/21 08:24:05;;;;;;;0.00;0.00;;;;;;;;;;5096416;28;20225;-75
2023/05/21 08:26:34;;;;;;;0.00;0.00;;;;;;;;;;5092098;28;20206;-75
2023/05/21 08:29:03;;;;;;;0.00;0.00;;;;;;;;;;5093788;28;20248;-76
2023/05/21 08:31:33;;;;;;;0.00;0.00;;;;;;;;;;5112305;28;20205;-76
2023/05/21 08:34:02;;;;;;;0.00;0.00;;;;;;;;;;5112022;28;20227;-75
2023/05/21 08:36:31;;;;;;;0.00;0.00;;;;;;;;;;5109393;28;20588;-75
2023/05/21 08:39:02;;;;;;;0.00;0.00;;;;;;;;;;5111640;28;20193;-75
2023/05/21 08:41:31;;;;;;;0.00;0.00;;;;;;;;;;5103426;28;20205;-76
2023/05/21 08:44:02;;;;;;;0.00;0.00;;;;;;;;;;5099990;28;20964;-75
2023/05/21 08:46:36;;;;;;;0.00;0.00;;;;;;;;;;5096191;28;20202;-75
2023/05/21 08:49:05;;;;;;;0.00;0.00;;;;;;;;;;5093359;28;20270;-75
2023/05/21 08:51:33;;;;;;;0.00;0.00;;;;;;;;;;5097537;28;20213;-75
2023/05/21 08:54:02;;;;;;;0.00;0.00;;;;;;;;;;5091559;28;20225;-75
2023/05/21 08:56:32;;;;;;;0.00;0.00;;;;;;;;;;5094542;28;20567;-76
2023/05/21 08:59:01;;;;;;;0.00;0.00;;;;;;;;;;5096477;28;20205;-75
2023/05/21 09:01:30;;;;;;;0.00;0.00;;;;;;;;;;5104253;28;20612;-75
2023/05/21 09:04:02;;;;;;;0.00;0.00;;;;;;;;;;5106525;28;20225;-75
2023/05/21 09:06:47;;;;;;;0.00;0.00;;;;;;;;;;5096157;28;20578;-75
2023/05/21 09:09:20;;;;;;;0.00;0.00;;;;;;;;;;5111232;28;20224;-75
2023/05/21 09:11:50;;;;;;;0.00;0.00;;;;;;;;;;5113784;28;20212;-75
2023/05/21 09:14:19;;;;;;;0.00;0.00;;;;;;;;;;5095006;28;20230;-75
2023/05/21 09:16:48;;;;;;;0.00;0.00;;;;;;;;;;5099247;28;20202;-75
2023/05/21 09:19:20;;;;;;;0.00;0.00;;;;;;;;;;5106646;28;20252;-75
2023/05/21 09:21:53;;;;;;;0.00;0.00;;;;;;;;;;5114120;28;20603;-75
2023/05/21 09:24:22;;;;;;;0.00;0.00;;;;;;;;;;5113771;28;20228;-75
2023/05/21 09:26:51;;;;;;;0.00;0.00;;;;;;;;;;5108219;27;20212;-75
2023/05/21 09:29:20;;;;;;;0.00;0.00;;;;;;;;;;5109195;28;20311;-75
2023/05/21 09:31:50;;;;;;;0.00;0.00;;;;;;;;;;5108770;28;20643;-75
2023/05/21 09:34:20;;;;;;;0.00;0.00;;;;;;;;;;5107659;28;20561;-75
2023/05/21 09:36:49;;;;;;;0.00;0.00;;;;;;;;;;5096958;28;20206;-75
2023/05/21 09:39:28;;;;;;;0.00;0.00;;;;;;;;;;5095439;28;20206;-76
2023/05/21 09:41:58;;;;;;;0.00;0.00;;;;;;;;;;5097531;28;20294;-75
2023/05/21 09:44:26;;;;;;;0.00;0.00;;;;;;;;;;5108861;28;20229;-75
2023/05/21 09:46:58;;;;;;;0.00;0.00;;;;;;;;;;5116633;28;20205;-78
2023/05/21 09:49:29;;;;;;;0.00;0.00;;;;;;;;;;5118437;28;20219;-76
2023/05/21 09:51:58;;;;;;;0.00;0.00;;;;;;;;;;5116266;28;20197;-78
2023/05/21 09:54:31;;;;;;;0.00;0.00;;;;;;;;;;5119172;28;20694;-77
2023/05/21 09:57:01;;;;;;;0.00;0.00;;;;;;;;;;5110874;28;20194;-78
2023/05/21 09:59:36;;;;;;;0.00;0.00;;;;;;;;;;5100212;28;20235;-78
2023/05/21 10:02:15;;;;;;;0.00;0.00;;;;;;;;;;5110318;28;20207;-77
2023/05/21 10:04:47;;;;;;;0.00;0.00;;;;;;;;;;5117186;28;20217;-76
2023/05/21 10:07:17;;;;;;;0.00;0.00;;;;;;;;;;5102515;28;20209;-78
2023/05/21 10:09:48;;;;;;;0.00;0.00;;;;;;;;;;5118022;28;20213;-78
2023/05/21 10:12:18;;;;;;;0.00;0.00;;;;;;;;;;5119601;28;20201;-78
2023/05/21 10:14:49;;;;;;;0.00;0.00;;;;;;;;;;5118782;28;20228;-78
2023/05/21 10:17:17;;;;;;;0.00;0.00;;;;;;;;;;5117628;28;20216;-78
2023/05/21 10:19:48;;;;;;;0.00;0.00;;;;;;;;;;5117454;28;20216;-77
2023/05/21 10:22:17;;;;;;;0.00;0.00;;;;;;;;;;5106526;28;20203;-77
2023/05/21 10:24:46;;;;;;;0.00;0.00;;;;;;;;;;5112477;28;20228;-78
2023/05/21 10:27:14;;;;;;;0.00;0.00;;;;;;;;;;5118083;28;20638;-77
2023/05/21 10:29:44;;;;;;;0.00;0.00;;;;;;;;;;5117217;28;20232;-76
2023/05/21 10:32:13;;;;;;;0.00;0.00;;;;;;;;;;5118078;28;20558;-78
2023/05/21 10:34:44;;;;;;;0.00;0.00;;;;;;;;;;5116375;28;20271;-77
2023/05/21 10:37:14;;;;;;;0.00;0.00;;;;;;;;;;5100779;28;20214;-77
2023/05/21 10:39:44;;;;;;;0.00;0.00;;;;;;;;;;5097953;28;20205;-77
2023/05/21 10:42:19;;;;;;;0.00;0.00;;;;;;;;;;5104998;28;20296;-77
2023/05/21 10:44:59;;;;;;;0.00;0.00;;;;;;;;;;5105920;28;20640;-78
2023/05/21 10:47:43;;;;;;;0.00;0.00;;;;;;;;;;5109097;28;20214;-76
2023/05/21 10:50:21;;;;;;;0.00;0.00;;;;;;;;;;5113637;28;20209;-77
2023/05/21 10:53:02;;;;;;;0.00;0.00;;;;;;;;;;5114363;28;20188;-77
2023/05/21 10:55:38;;;;;;;0.00;0.00;;;;;;;;;;5114069;28;20712;-76
2023/05/21 10:58:20;;;;;;;0.00;0.00;;;;;;;;;;5103561;28;20196;-75
2023/05/21 11:00:49;;;;;;;0.00;0.00;;;;;;;;;;5103683;28;20265;-78
2023/05/21 11:03:18;;;;;;;0.00;0.00;;;;;;;;;;5107870;28;20669;-77
2023/05/21 11:05:52;;;;;;;0.00;0.00;;;;;;;;;;5110733;28;20221;-77
2023/05/21 11:08:25;;;;;;;0.00;0.00;;;;;;;;;;5105469;28;20201;-77
2023/05/21 11:10:56;;;;;;;0.00;0.00;;;;;;;;;;5103603;28;20197;-78
2023/05/21 11:13:25;;;;;;;0.00;0.00;;;;;;;;;;5109427;28;20610;-78
2023/05/21 11:16:06;;;;;;;0.00;0.00;;;;;;;;;;5110949;28;20202;-77
2023/05/21 11:18:53;;;;;;;0.00;0.00;;;;;;;;;;5115683;28;20185;-75
2023/05/21 11:21:25;;;;;;;0.00;0.00;;;;;;;;;;5110667;28;20206;-76
2023/05/21 11:23:55;;;;;;;0.00;0.00;;;;;;;;;;5117176;28;20232;-77
2023/05/21 11:26:24;;;;;;;0.00;0.00;;;;;;;;;;5117129;28;20239;-78
2023/05/21 11:29:06;;;;;;;0.00;0.00;;;;;;;;;;5117045;28;20216;-77
2023/05/21 11:31:37;;;;;;;0.00;0.00;;;;;;;;;;5117649;27;20185;-77
2023/05/21 11:34:12;;;;;;;0.00;0.00;;;;;;;;;;5117339;28;20232;-77
2023/05/21 11:36:41;;;;;;;0.00;0.00;;;;;;;;;;5113127;28;20201;-76
2023/05/21 11:39:11;;;;;;;0.00;0.00;;;;;;;;;;5117805;28;20650;-78
2023/05/21 11:41:53;;;;;;;0.00;0.00;;;;;;;;;;5117370;28;20189;-78
2023/05/21 11:44:39;;;;;;;0.00;0.00;;;;;;;;;;5116907;28;20220;-77
2023/05/21 11:47:08;;;;;;;0.00;0.00;;;;;;;;;;5096847;28;20189;-78
2023/05/21 11:49:38;;;;;;;0.00;0.00;;;;;;;;;;5105275;27;20228;-77
2023/05/21 11:52:08;;;;;;;0.00;0.00;;;;;;;;;;5113497;28;20697;-78
2023/05/21 11:54:40;;;;;;;0.00;0.00;;;;;;;;;;5117373;28;20220;-78
2023/05/21 11:57:09;;;;;;;0.00;0.00;;;;;;;;;;5099987;28;20692;-77
2023/05/21 11:59:38;;;;;;;0.00;0.00;;;;;;;;;;5095641;28;20198;-77
2023/05/21 12:02:06;;;;;;;0.00;0.00;;;;;;;;;;5096148;28;20209;-78
2023/05/21 12:04:36;;;;;;;0.00;0.00;;;;;;;;;;5096032;28;20218;-78
2023/05/21 12:07:06;;;;;;;0.00;0.00;;;;;;;;;;5108850;28;20198;-77
2023/05/21 12:09:40;;;;;;;0.00;0.00;;;;;;;;;;5100348;28;20588;-78
2023/05/21 12:12:10;;;;;;;0.00;0.00;;;;;;;;;;5096948;28;20197;-78
2023/05/21 12:14:38;;;;;;;0.00;0.00;;;;;;;;;;5112732;28;20247;-78
2023/05/21 12:17:09;;;;;;;0.00;0.00;;;;;;;;;;5111482;28;20197;-78
2023/05/21 12:19:38;;;;;;;0.00;0.00;;;;;;;;;;5109487;27;20556;-77
2023/05/21 12:22:06;;;;;;;0.00;0.00;;;;;;;;;;5111046;28;20571;-78
2023/05/21 12:24:35;;;;;;;0.00;0.00;;;;;;;;;;5112252;28;20217;-78
2023/05/21 12:27:08;;;;;;;0.00;0.00;;;;;;;;;;5105370;28;20198;-77
2023/05/21 12:29:37;;;;;;;0.00;0.00;;;;;;;;;;5105008;28;20293;-77
2023/05/21 12:32:07;;;;;;;0.00;0.00;;;;;;;;;;5099963;28;20197;-77
2023/05/21 12:34:40;;;;;;;0.00;0.00;;;;;;;;;;5106890;28;20252;-77
2023/05/21 12:37:08;;;;;;;0.00;0.00;;;;;;;;;;5099182;28;20209;-77
2023/05/21 12:39:39;;;;;;;0.00;0.00;;;;;;;;;;5101260;28;20219;-78
2023/05/21 12:42:09;;;;;;;0.00;0.00;;;;;;;;;;5108404;28;20201;-77
2023/05/21 12:44:39;;;;;;;0.00;0.00;;;;;;;;;;5115025;28;20232;-78
2023/05/21 12:47:07;;;;;;;0.00;0.00;;;;;;;;;;5101193;28;20208;-78
2023/05/21 12:49:37;;;;;;;0.00;0.00;;;;;;;;;;5109236;28;20216;-78
2023/05/21 12:52:06;;;;;;;0.00;0.00;;;;;;;;;;5116976;28;20193;-78
2023/05/21 12:54:35;;;;;;;0.00;0.00;;;;;;;;;;5110316;28;20217;-78
2023/05/21 12:57:08;;;;;;;0.00;0.00;;;;;;;;;;5116052;28;20208;-77
2023/05/21 12:59:44;;;;;;;0.00;0.00;;;;;;;;;;5117072;28;20181;-78
2023/05/21 13:02:17;;;;;;;0.00;0.00;;;;;;;;;;5116527;28;20197;-76
2023/05/21 13:04:46;;;;;;;0.00;0.00;;;;;;;;;;5116078;28;20243;-78
2023/05/21 13:07:14;;;;;;;0.00;0.00;;;;;;;;;;5116782;28;20601;-78
2023/05/21 13:09:43;;;;;;;0.00;0.00;;;;;;;;;;5116687;28;20553;-77
2023/05/21 13:12:13;;;;;;;0.00;0.00;;;;;;;;;;5103492;28;20560;-78
2023/05/21 13:14:42;;;;;;;0.00;0.00;;;;;;;;;;5098517;28;20213;-77
2023/05/21 13:17:11;;;;;;;0.00;0.00;;;;;;;;;;5100905;28;20201;-76
2023/05/21 13:19:40;;;;;;;0.00;0.00;;;;;;;;;;5107673;28;20193;-78
2023/05/21 13:22:10;;;;;;;0.00;0.00;;;;;;;;;;5105979;28;20206;-77
2023/05/21 13:24:38;;;;;;;0.00;0.00;;;;;;;;;;5110708;28;20293;-77
2023/05/21 13:27:07;;;;;;;0.00;0.00;;;;;;;;;;5107875;28;20612;-79
2023/05/21 13:29:37;;;;;;;0.00;0.00;;;;;;;;;;5101851;28;20206;-77
2023/05/21 13:32:06;;;;;;;0.00;0.00;;;;;;;;;;5105789;28;20202;-77
2023/05/21 13:34:35;;;;;;;0.00;0.00;;;;;;;;;;5095183;28;20217;-78
2023/05/21 13:37:04;;;;;;;0.00;0.00;;;;;;;;;;5110259;28;20205;-78
2023/05/21 13:39:32;;;;;;;0.00;0.00;;;;;;;;;;5103822;28;20228;-77
2023/05/21 13:42:01;;;;;;;0.00;0.00;;;;;;;;;;5113525;28;20201;-76
2023/05/21 13:44:32;;;;;;;0.00;0.00;;;;;;;;;;5111887;28;20221;-77
2023/05/21 13:47:02;;;;;;;0.00;0.00;;;;;;;;;;5117176;28;20221;-76
2023/05/21 13:49:30;;;;;;;0.00;0.00;;;;;;;;;;5109769;28;20778;-77
2023/05/21 13:52:06;;;;;;;0.00;0.00;;;;;;;;;;5116450;28;20241;-78
2023/05/21 13:54:38;;;;;;;0.00;0.00;;;;;;;;;;5112922;28;20218;-77
2023/05/21 13:57:07;;;;;;;0.00;0.00;;;;;;;;;;5116023;28;20203;-77
2023/05/21 13:59:35;;;;;;;0.00;0.00;;;;;;;;;;5113373;28;20201;-78
2023/05/21 14:02:07;;;;;;;0.00;0.00;;;;;;;;;;5116586;28;20205;-78
2023/05/21 14:04:36;;;;;;;0.00;0.00;;;;;;;;;;5116553;28;20225;-76
2023/05/21 14:07:07;;;;;;;0.00;0.00;;;;;;;;;;5116186;28;20630;-77
2023/05/21 14:09:36;;;;;;;0.00;0.00;;;;;;;;;;5117202;28;20205;-77
2023/05/21 14:12:05;;;;;;;0.00;0.00;;;;;;;;;;5108206;28;20285;-78
2023/05/21 14:14:35;;;;;;;0.00;0.00;;;;;;;;;;5102688;27;20274;-76
2023/05/21 14:17:03;;;;;;;0.00;0.00;;;;;;;;;;5103065;28;20208;-77
2023/05/21 14:19:33;;;;;;;0.00;0.00;;;;;;;;;;5117689;28;20204;-77
2023/05/21 14:22:02;;;;;;;0.00;0.00;;;;;;;;;;5117173;28;20189;-77
2023/05/21 14:24:31;;;;;;;0.00;0.00;;;;;;;;;;5117296;28;20213;-77
2023/05/21 14:27:00;;;;;;;0.00;0.00;;;;;;;;;;5112634;28;20649;-77
2023/05/21 14:29:28;;;;;;;0.00;0.00;;;;;;;;;;5117023;28;20320;-78
2023/05/21 14:31:57;;;;;;;0.00;0.00;;;;;;;;;;5114154;28;20227;-75
2023/05/21 14:34:25;;;;;;;0.00;0.00;;;;;;;;;;5117494;28;20274;-78
2023/05/21 14:36:55;;;;;;;0.00;0.00;;;;;;;;;;5113609;28;20201;-77
2023/05/21 14:39:24;;;;;;;0.00;0.00;;;;;;;;;;5113385;28;20206;-77
2023/05/21 14:41:52;;;;;;;0.00;0.00;;;;;;;;;;5112567;28;20554;-78
2023/05/21 14:44:21;;;;;;;0.00;0.00;;;;;;;;;;5116445;28;20227;-78
2023/05/21 14:46:50;;;;;;;0.00;0.00;;;;;;;;;;5115465;28;20193;-77
2023/05/21 14:49:18;;;;;;;0.00;0.00;;;;;;;;;;5116180;28;20205;-77
2023/05/21 14:51:47;;;;;;;0.00;0.00;;;;;;;;;;5110498;28;20210;-77
2023/05/21 14:54:17;;;;;;;0.00;0.00;;;;;;;;;;5113103;28;20229;-77
2023/05/21 14:56:45;;;;;;;0.00;0.00;;;;;;;;;;5106954;28;20200;-77
2023/05/21 14:59:14;;;;;;;0.00;0.00;;;;;;;;;;5099405;28;20209;-77